createdAt,value
2022-12-17T00:01:41.568Z,96259.81
2022-12-17T00:04:26.746Z,96262.19
2022-12-17T00:07:12.311Z,96262.34
2022-12-17T00:09:57.577Z,96259.22
2022-12-17T00:12:42.666Z,96262.06
2022-12-17T00:15:27.758Z,96279.09
2022-12-17T00:18:17.812Z,96275.66
2022-12-17T00:21:02.795Z,96288.56
2022-12-17T00:23:47.975Z,96291.84
2022-12-17T00:26:33.124Z,96294.22
2022-12-17T00:29:31.913Z,96313.47
2022-12-17T00:32:17.098Z,96315.03
2022-12-17T00:35:02.246Z,96315.03
2022-12-17T00:37:47.452Z,96305.03
2022-12-17T00:40:32.561Z,96317.03
2022-12-17T00:43:21.126Z,96322.63
2022-12-17T00:46:06.402Z,96324.59
2022-12-17T00:48:51.501Z,96337.06
2022-12-17T00:51:37.316Z,96345.84
2022-12-17T00:54:22.348Z,96338.16
2022-12-17T00:57:07.431Z,96337.34
2022-12-17T00:59:52.371Z,96346.09
2022-12-17T01:02:37.592Z,96340.00
2022-12-17T01:05:22.873Z,96344.28
2022-12-17T01:08:07.926Z,96337.06
2022-12-17T01:10:53.092Z,96337.25
2022-12-17T01:13:41.442Z,96324.88
2022-12-17T01:16:27.550Z,96323.94
2022-12-17T01:19:12.879Z,96314.63
2022-12-17T01:22:15.317Z,96319.81
2022-12-17T01:25:00.494Z,96323.41
2022-12-17T01:27:45.486Z,96327.69
2022-12-17T01:30:30.689Z,96330.22
2022-12-17T01:33:36.480Z,96330.31
2022-12-17T01:36:40.755Z,96329.63
2022-12-17T01:39:25.814Z,96324.50
2022-12-17T01:42:11.165Z,96324.34
2022-12-17T01:45:02.503Z,96330.22
2022-12-17T01:47:49.474Z,96319.06
2022-12-17T01:50:34.595Z,96310.38
2022-12-17T01:53:19.846Z,96296.38
2022-12-17T01:56:04.946Z,96292.25
2022-12-17T01:58:50.083Z,96299.84
2022-12-17T02:01:35.211Z,96291.34
2022-12-17T02:04:20.443Z,96293.28
2022-12-17T02:07:08.723Z,96280.03
2022-12-17T02:10:01.184Z,96286.84
2022-12-17T02:12:53.413Z,96276.91
2022-12-17T02:16:01.716Z,96268.22
2022-12-17T02:18:49.702Z,96279.38
2022-12-17T02:21:35.000Z,96293.34
2022-12-17T02:24:39.957Z,96300.19
2022-12-17T02:27:26.460Z,96312.16
2022-12-17T02:30:12.444Z,96332.31
2022-12-17T02:32:57.667Z,96360.44
2022-12-17T02:35:43.951Z,96370.28
2022-12-17T02:38:39.270Z,96387.75
2022-12-17T02:41:24.873Z,96385.41
2022-12-17T02:44:10.498Z,96384.84
2022-12-17T02:46:55.804Z,96389.84
2022-12-17T02:49:58.276Z,96385.41
2022-12-17T02:52:43.365Z,96380.34
2022-12-17T02:55:28.478Z,96397.50
2022-12-17T02:58:13.593Z,96404.56
2022-12-17T03:00:58.794Z,96414.88
2022-12-17T03:03:48.674Z,96436.81
2022-12-17T03:06:35.288Z,96439.28
2022-12-17T03:09:20.555Z,96442.06
2022-12-17T03:12:05.592Z,96452.38
2022-12-17T03:14:50.685Z,96454.91
2022-12-17T03:17:35.709Z,96463.88
2022-12-17T03:20:20.937Z,96457.75
2022-12-17T03:23:05.913Z,96463.44
2022-12-17T03:25:51.068Z,96455.59
2022-12-17T03:28:36.235Z,96453.69
2022-12-17T03:31:21.288Z,96448.13
2022-12-17T03:34:06.540Z,96432.44
2022-12-17T03:36:51.645Z,96422.13
2022-12-17T03:39:36.796Z,96424.09
2022-12-17T03:42:21.770Z,96425.81
2022-12-17T03:45:06.959Z,96421.66
2022-12-17T03:47:52.088Z,96407.41
2022-12-17T03:50:37.163Z,96397.84
2022-12-17T03:53:22.937Z,96414.94
2022-12-17T03:56:08.103Z,96426.19
2022-12-17T03:58:53.234Z,96424.50
2022-12-17T04:01:41.641Z,96420.28
2022-12-17T04:04:26.744Z,96432.78
2022-12-17T04:07:12.032Z,96431.69
2022-12-17T04:09:57.313Z,96432.44
2022-12-17T04:12:42.444Z,96442.31
2022-12-17T04:15:27.639Z,96437.81
2022-12-17T04:18:12.775Z,96441.56
2022-12-17T04:20:57.996Z,96447.78
2022-12-17T04:23:43.014Z,96467.28
2022-12-17T04:26:28.042Z,96478.22
2022-12-17T04:29:13.042Z,96469.72
2022-12-17T04:31:58.237Z,96458.59
2022-12-17T04:34:43.516Z,96458.34
2022-12-17T04:37:30.175Z,96469.31
2022-12-17T04:40:15.546Z,96471.84
2022-12-17T04:43:00.795Z,96481.88
2022-12-17T04:45:46.019Z,96492.31
2022-12-17T04:48:31.077Z,96486.63
2022-12-17T04:51:16.255Z,96487.38
2022-12-17T04:54:01.507Z,96478.41
2022-12-17T04:56:46.557Z,96485.25
2022-12-17T04:59:31.653Z,96487.81
2022-12-17T05:02:16.710Z,96472.38
2022-12-17T05:05:01.818Z,96496.19
2022-12-17T05:07:46.850Z,96500.72
2022-12-17T05:10:31.955Z,96516.03
2022-12-17T05:13:17.530Z,96538.66
2022-12-17T05:16:02.743Z,96544.13
2022-12-17T05:18:47.872Z,96549.56
2022-12-17T05:21:33.583Z,96547.88
2022-12-17T05:24:18.883Z,96549.50
2022-12-17T05:27:04.142Z,96541.66
2022-12-17T05:29:49.257Z,96528.81
2022-12-17T05:32:34.429Z,96532.22
2022-12-17T05:35:19.525Z,96542.66
2022-12-17T05:38:04.505Z,96541.09
2022-12-17T05:40:49.549Z,96566.25
2022-12-17T05:43:35.028Z,96574.91
2022-12-17T05:46:21.044Z,96567.63
2022-12-17T05:49:06.176Z,96579.63
2022-12-17T05:51:51.409Z,96587.63
2022-12-17T05:54:36.356Z,96599.53
2022-12-17T05:57:21.638Z,96614.72
2022-12-17T06:00:06.724Z,96617.09
2022-12-17T06:02:51.905Z,96610.41
2022-12-17T06:05:36.986Z,96615.53
2022-12-17T06:08:22.699Z,96627.38
2022-12-17T06:11:07.720Z,96615.41
2022-12-17T06:13:52.819Z,96610.09
2022-12-17T06:16:38.113Z,96610.47
2022-12-17T06:19:23.110Z,96614.16
2022-12-17T06:22:08.187Z,96623.00
2022-12-17T06:24:53.321Z,96624.00
2022-12-17T06:27:52.178Z,96634.88
2022-12-17T06:30:37.374Z,96650.88
2022-12-17T06:33:22.898Z,96658.38
2022-12-17T06:36:07.946Z,96655.13
2022-12-17T06:38:53.055Z,96662.44
2022-12-17T06:41:38.200Z,96657.56
2022-12-17T06:44:23.289Z,96660.97
2022-12-17T06:47:08.429Z,96676.22
2022-12-17T06:49:59.541Z,96686.25
2022-12-17T06:52:46.726Z,96691.47
2022-12-17T06:55:31.783Z,96701.44
2022-12-17T06:58:17.608Z,96702.28
2022-12-17T07:01:16.651Z,96716.38
2022-12-17T07:04:01.861Z,96711.31
2022-12-17T07:06:47.179Z,96721.09
2022-12-17T07:09:32.176Z,96725.47
2022-12-17T07:12:17.382Z,96734.91
2022-12-17T07:15:02.536Z,96727.31
2022-12-17T07:17:47.678Z,96724.50
2022-12-17T07:20:32.782Z,96722.84
2022-12-17T07:23:17.979Z,96730.38
2022-12-17T07:26:17.294Z,96722.94
2022-12-17T07:29:02.590Z,96732.25
2022-12-17T07:31:47.906Z,96741.56
2022-12-17T07:34:33.169Z,96750.75
2022-12-17T07:37:20.624Z,96745.78
2022-12-17T07:40:06.080Z,96760.16
2022-12-17T07:42:51.376Z,96762.75
2022-12-17T07:45:36.757Z,96760.91
2022-12-17T07:48:21.782Z,96763.56
2022-12-17T07:51:07.396Z,96756.94
2022-12-17T07:53:52.522Z,96766.09
2022-12-17T07:56:37.653Z,96777.91
2022-12-17T07:59:22.759Z,96768.13
2022-12-17T08:02:08.141Z,96777.69
2022-12-17T08:04:53.479Z,96782.81
2022-12-17T08:07:38.530Z,96778.38
2022-12-17T08:10:23.895Z,96782.69
2022-12-17T08:13:15.515Z,96792.81
2022-12-17T08:16:00.636Z,96795.38
2022-12-17T08:18:45.843Z,96782.63
2022-12-17T08:21:31.089Z,96794.44
2022-12-17T08:24:16.294Z,96795.25
2022-12-17T08:27:01.404Z,96801.50
2022-12-17T08:29:46.810Z,96802.28
2022-12-17T08:32:32.115Z,96807.00
2022-12-17T08:35:16.830Z,96809.31
2022-12-17T08:38:02.062Z,96809.16
2022-12-17T08:40:46.950Z,96825.41
2022-12-17T08:43:42.623Z,96829.50
2022-12-17T08:46:30.673Z,96835.50
2022-12-17T08:49:15.813Z,96846.50
2022-12-17T08:52:00.952Z,96851.63
2022-12-17T08:54:46.167Z,96858.38
2022-12-17T08:57:32.370Z,96847.31
2022-12-17T09:00:17.683Z,96850.63
2022-12-17T09:03:03.007Z,96870.06
2022-12-17T09:05:48.350Z,96881.59
2022-12-17T09:08:42.776Z,96878.03
2022-12-17T09:11:28.027Z,96886.66
2022-12-17T09:14:13.154Z,96874.16
2022-12-17T09:16:58.504Z,96874.28
2022-12-17T09:19:43.794Z,96876.16
2022-12-17T09:22:29.123Z,96877.94
2022-12-17T09:25:14.164Z,96885.91
2022-12-17T09:27:59.321Z,96877.56
2022-12-17T09:30:44.378Z,96874.97
2022-12-17T09:33:33.154Z,96872.19
2022-12-17T09:36:20.448Z,96869.66
2022-12-17T09:39:06.103Z,96873.22
2022-12-17T09:42:10.221Z,96887.06
2022-12-17T09:45:01.259Z,96893.69
2022-12-17T09:48:15.632Z,96889.47
2022-12-17T09:51:00.477Z,96893.69
2022-12-17T09:53:55.730Z,96898.66
2022-12-17T09:56:42.068Z,96895.31
2022-12-17T09:59:28.786Z,96893.47
2022-12-17T10:02:14.360Z,96901.75
2022-12-17T10:05:01.356Z,96899.41
2022-12-17T10:07:53.647Z,96917.47
2022-12-17T10:10:39.439Z,96910.09
2022-12-17T10:13:31.977Z,96912.63
2022-12-17T10:16:17.041Z,96934.59
2022-12-17T10:19:02.310Z,96937.19
2022-12-17T10:21:47.527Z,96934.03
2022-12-17T10:24:32.789Z,96931.28
2022-12-17T10:27:17.884Z,96932.94
2022-12-17T10:30:02.941Z,96938.88
2022-12-17T10:32:48.133Z,96929.78
2022-12-17T10:35:33.011Z,96934.09
2022-12-17T10:38:28.184Z,96937.19
2022-12-17T10:41:13.269Z,96934.44
2022-12-17T10:43:58.591Z,96938.63
2022-12-17T10:46:50.455Z,96943.66
2022-12-17T10:49:44.826Z,96959.72
2022-12-17T10:52:42.195Z,96971.44
2022-12-17T10:55:36.420Z,96970.75
2022-12-17T10:58:21.706Z,96960.56
2022-12-17T11:01:06.778Z,96965.41
2022-12-17T11:03:55.953Z,96972.78
2022-12-17T11:06:45.713Z,96968.28
2022-12-17T11:10:10.032Z,96967.03
2022-12-17T11:16:09.312Z,96965.63
2022-12-17T11:18:54.282Z,96969.25
2022-12-17T11:21:43.657Z,96971.19
2022-12-17T11:24:32.961Z,96980.47
2022-12-17T11:27:18.197Z,96989.66
2022-12-17T11:30:03.438Z,96992.34
2022-12-17T11:32:48.621Z,96993.13
2022-12-17T11:35:44.440Z,96995.00
2022-12-17T11:38:31.974Z,97003.38
2022-12-17T11:41:22.418Z,97006.81
2022-12-17T11:44:14.856Z,97014.03
2022-12-17T11:46:59.816Z,97013.28
2022-12-17T11:49:45.025Z,97014.31
2022-12-17T11:52:33.704Z,97022.88
2022-12-17T11:55:31.416Z,97025.47
2022-12-17T11:58:30.130Z,97029.59
2022-12-17T12:01:23.084Z,97027.91
2022-12-17T12:04:27.178Z,97029.59
2022-12-17T12:07:16.882Z,97030.66
2022-12-17T12:10:04.727Z,97027.91
2022-12-17T12:13:05.392Z,97041.22
2022-12-17T12:16:10.567Z,97034.41
2022-12-17T12:19:19.045Z,97040.25
2022-12-17T12:22:13.464Z,97051.06
2022-12-17T12:25:10.756Z,97053.66
2022-12-17T12:27:58.953Z,97053.72
2022-12-17T12:34:32.258Z,97059.75
2022-12-17T12:37:18.444Z,97068.97
2022-12-17T12:40:06.088Z,97067.91
2022-12-17T12:42:52.679Z,97067.00
2022-12-17T12:45:56.928Z,97062.78
2022-12-17T12:49:01.111Z,97066.81
2022-12-17T12:51:46.598Z,97072.81
2022-12-17T12:54:44.052Z,97085.34
2022-12-17T12:57:55.127Z,97082.13
2022-12-17T13:00:51.383Z,97091.31
2022-12-17T13:03:44.376Z,97099.53
2022-12-17T13:06:11.949Z,97098.69
2022-12-17T13:08:38.782Z,97113.91
2022-12-17T13:11:24.315Z,97111.22
2022-12-17T13:13:56.803Z,97121.34
2022-12-17T13:16:32.405Z,97129.91
2022-12-17T13:19:03.615Z,97123.13
2022-12-17T13:21:31.545Z,97124.00
2022-12-17T13:23:59.074Z,97128.19
2022-12-17T13:26:30.181Z,97139.22
2022-12-17T13:29:04.021Z,97140.84
2022-12-17T13:31:52.781Z,97139.03
2022-12-17T13:34:28.414Z,97139.19
2022-12-17T13:37:03.726Z,97143.44
2022-12-17T13:39:33.429Z,97146.81
2022-12-17T13:42:00.121Z,97162.75
2022-12-17T13:44:39.672Z,97159.28
2022-12-17T13:47:06.434Z,97168.66
2022-12-17T13:49:32.988Z,97163.50
2022-12-17T13:52:11.860Z,97170.25
2022-12-17T13:54:38.608Z,97170.22
2022-12-17T13:57:09.115Z,97179.53
2022-12-17T13:59:35.615Z,97176.16
2022-12-17T14:02:05.068Z,97185.41
2022-12-17T14:04:32.004Z,97186.34
2022-12-17T14:06:59.141Z,97192.13
2022-12-17T14:09:29.982Z,97199.69
2022-12-17T14:12:15.149Z,97198.81
2022-12-17T14:14:43.284Z,97211.38
2022-12-17T14:17:20.257Z,97208.78
2022-12-17T14:19:47.323Z,97208.84
2022-12-17T14:22:16.693Z,97212.09
2022-12-17T14:24:43.139Z,97212.00
2022-12-17T14:27:26.791Z,97223.09
2022-12-17T14:29:53.260Z,97222.16
2022-12-17T14:32:30.347Z,97231.47
2022-12-17T14:35:00.633Z,97239.94
2022-12-17T14:37:27.896Z,97238.19
2022-12-17T14:39:55.736Z,97244.00
2022-12-17T14:42:25.597Z,97238.94
2022-12-17T14:44:56.108Z,97236.53
2022-12-17T14:47:26.687Z,97243.19
2022-12-17T14:49:55.613Z,97247.41
2022-12-17T14:52:27.582Z,97253.13
2022-12-17T14:54:54.125Z,97249.94
2022-12-17T14:57:21.333Z,97251.78
2022-12-17T14:59:47.844Z,97252.63
2022-12-17T15:02:19.004Z,97257.69
2022-12-17T15:04:45.496Z,97259.41
2022-12-17T15:07:18.093Z,97263.50
2022-12-17T15:09:44.955Z,97263.44
2022-12-17T15:12:11.414Z,97269.31
2022-12-17T15:14:37.895Z,97271.94
2022-12-17T15:17:05.370Z,97287.19
2022-12-17T15:19:31.858Z,97285.53
2022-12-17T15:21:58.324Z,97284.59
2022-12-17T15:24:24.724Z,97287.09
2022-12-17T15:26:51.167Z,97292.91
2022-12-17T15:29:17.636Z,97300.44
2022-12-17T15:31:44.189Z,97305.63
2022-12-17T15:34:11.100Z,97309.88
2022-12-17T15:36:37.529Z,97311.59
2022-12-17T15:39:06.247Z,97316.66
2022-12-17T15:41:51.455Z,97313.28
2022-12-17T15:44:17.871Z,97320.03
2022-12-17T15:46:44.386Z,97323.41
2022-12-17T15:49:10.938Z,97324.31
2022-12-17T15:51:37.403Z,97327.78
2022-12-17T15:54:04.080Z,97325.28
2022-12-17T15:56:30.809Z,97333.81
2022-12-17T15:58:57.779Z,97338.06
2022-12-17T16:01:24.344Z,97341.47
2022-12-17T16:03:53.927Z,97341.50
2022-12-17T16:06:20.405Z,97339.00
2022-12-17T16:08:47.016Z,97344.19
2022-12-17T16:11:13.688Z,97344.22
2022-12-17T16:13:40.153Z,97348.44
2022-12-17T16:16:07.021Z,97354.34
2022-12-17T16:18:33.716Z,97348.38
2022-12-17T16:21:04.399Z,97360.94
2022-12-17T16:23:30.813Z,97358.31
2022-12-17T16:25:58.062Z,97369.16
2022-12-17T16:28:24.622Z,97370.81
2022-12-17T16:30:58.141Z,97369.03
2022-12-17T16:33:24.657Z,97379.00
2022-12-17T16:35:51.835Z,97382.34
2022-12-17T16:38:18.284Z,97392.47
2022-12-17T16:40:44.727Z,97390.81
2022-12-17T16:43:11.155Z,97395.09
2022-12-17T16:45:39.508Z,97390.84
2022-12-17T16:48:06.048Z,97397.63
2022-12-17T16:50:32.898Z,97400.16
2022-12-17T16:52:59.414Z,97400.09
2022-12-17T16:55:25.926Z,97405.94
2022-12-17T16:57:52.423Z,97402.50
2022-12-17T17:00:18.908Z,97405.84
2022-12-17T17:02:53.048Z,97402.38
2022-12-17T17:05:20.001Z,97412.53
2022-12-17T17:07:46.513Z,97416.66
2022-12-17T17:10:12.914Z,97403.16
2022-12-17T17:12:39.339Z,97419.16
2022-12-17T17:15:06.049Z,97417.47
2022-12-17T17:17:54.504Z,97419.16
2022-12-17T17:20:18.939Z,97416.59
2022-12-17T17:22:45.508Z,97414.94
2022-12-17T17:25:12.020Z,97423.34
2022-12-17T17:27:38.508Z,97426.78
2022-12-17T17:30:05.240Z,97431.03
2022-12-17T17:32:31.736Z,97434.28
2022-12-17T17:34:58.220Z,97436.81
2022-12-17T17:37:24.691Z,97439.34
2022-12-17T17:39:51.157Z,97445.25
2022-12-17T17:42:17.620Z,97451.28
2022-12-17T17:44:44.103Z,97448.06
2022-12-17T17:47:10.684Z,97457.50
2022-12-17T17:49:37.163Z,97457.56
2022-12-17T17:52:11.625Z,97467.09
2022-12-17T17:54:39.860Z,97459.72
2022-12-17T17:57:06.531Z,97468.22
2022-12-17T17:59:34.324Z,97465.69
2022-12-17T18:02:01.217Z,97465.78
2022-12-17T18:04:27.941Z,97470.09
2022-12-17T18:09:40.948Z,97474.72
2022-12-17T18:12:42.858Z,97486.63
2022-12-17T18:15:14.896Z,97484.25
2022-12-17T18:17:46.130Z,97492.78
2022-12-17T18:20:12.753Z,97503.03
2022-12-17T18:22:39.180Z,97499.66
2022-12-17T18:25:05.701Z,97498.97
2022-12-17T18:27:32.368Z,97509.38
2022-12-17T18:29:58.833Z,97517.13
2022-12-17T18:32:25.275Z,97515.47
2022-12-17T18:34:51.755Z,97520.63
2022-12-17T18:37:18.243Z,97529.97
2022-12-17T18:39:44.704Z,97530.84
2022-12-17T18:42:29.812Z,97531.72
2022-12-17T18:44:56.249Z,97535.13
2022-12-17T18:47:22.903Z,97537.66
2022-12-17T18:49:49.554Z,97537.66
2022-12-17T18:52:17.388Z,97551.13
2022-12-17T18:54:44.301Z,97549.38
2022-12-17T18:57:10.888Z,97554.41
2022-12-17T18:59:37.561Z,97561.03
2022-12-17T19:02:04.193Z,97560.09
2022-12-17T19:04:33.076Z,97566.78
2022-12-17T19:06:59.689Z,97565.88
2022-12-17T19:09:28.175Z,97580.09
2022-12-17T19:11:55.353Z,97574.06
2022-12-17T19:14:25.431Z,97581.59
2022-12-17T19:16:52.385Z,97583.22
2022-12-17T19:19:19.231Z,97591.63
2022-12-17T19:21:45.801Z,97595.00
2022-12-17T19:24:13.412Z,97587.34
2022-12-17T19:26:39.936Z,97598.25
2022-12-17T19:29:08.545Z,97611.78
2022-12-17T19:31:35.168Z,97607.66
2022-12-17T19:34:02.294Z,97608.53
2022-12-17T19:36:29.187Z,97611.13
2022-12-17T19:38:56.281Z,97616.19
2022-12-17T19:41:22.909Z,97626.25
2022-12-17T19:43:52.987Z,97622.06
2022-12-17T19:46:19.621Z,97627.88
2022-12-17T19:48:48.713Z,97630.34
2022-12-17T19:51:16.343Z,97624.53
2022-12-17T19:53:43.198Z,97633.84
2022-12-17T19:56:15.853Z,97627.97
2022-12-17T19:58:42.395Z,97631.47
2022-12-17T20:01:12.870Z,97638.28
2022-12-17T20:03:39.658Z,97645.00
2022-12-17T20:06:06.527Z,97644.84
2022-12-17T20:08:33.200Z,97641.53
2022-12-17T20:11:03.670Z,97647.53
2022-12-17T20:13:30.194Z,97646.81
2022-12-17T20:16:03.757Z,97651.13
2022-12-17T20:18:30.355Z,97659.50
2022-12-17T20:21:03.755Z,97670.41
2022-12-17T20:23:30.521Z,97664.53
2022-12-17T20:26:09.930Z,97669.59
2022-12-17T20:28:36.860Z,97662.91
2022-12-17T20:31:03.948Z,97668.78
2022-12-17T20:33:30.388Z,97665.41
2022-12-17T20:35:56.902Z,97669.72
2022-12-17T20:38:23.373Z,97671.38
2022-12-17T20:40:49.921Z,97684.91
2022-12-17T20:43:16.429Z,97678.94
2022-12-17T20:45:49.727Z,97682.28
2022-12-17T20:48:16.918Z,97697.47
2022-12-17T20:50:44.284Z,97689.75
2022-12-17T20:53:10.792Z,97702.44
2022-12-17T20:55:37.326Z,97698.13
2022-12-17T20:58:03.767Z,97703.06
2022-12-17T21:00:30.311Z,97700.44
2022-12-17T21:02:57.278Z,97699.44
2022-12-17T21:05:24.007Z,97702.75
2022-12-17T21:07:50.991Z,97707.09
2022-12-17T21:10:17.513Z,97712.25
2022-12-17T21:13:02.834Z,97723.22
2022-12-17T21:15:29.398Z,97717.38
2022-12-17T21:17:56.090Z,97709.81
2022-12-17T21:20:22.611Z,97720.81
2022-12-17T21:22:49.456Z,97717.50
2022-12-17T21:25:15.995Z,97721.78
2022-12-17T21:27:42.456Z,97723.53
2022-12-17T21:30:13.436Z,97729.38
2022-12-17T21:32:40.239Z,97738.63
2022-12-17T21:35:07.007Z,97743.75
2022-12-17T21:37:33.548Z,97746.31
2022-12-17T21:40:00.214Z,97747.19
2022-12-17T21:42:45.527Z,97753.06
2022-12-17T21:45:12.266Z,97748.88
2022-12-17T21:47:39.003Z,97750.59
2022-12-17T21:50:05.681Z,97753.06
2022-12-17T21:52:34.211Z,97765.69
2022-12-17T21:55:00.660Z,97762.09
2022-12-17T21:57:27.145Z,97767.09
2022-12-17T21:59:53.596Z,97762.03
2022-12-17T22:02:21.244Z,97767.22
2022-12-17T22:04:48.276Z,97769.78
2022-12-17T22:07:15.744Z,97774.94
2022-12-17T22:10:20.347Z,97775.84
2022-12-17T22:12:55.551Z,97777.56
2022-12-17T22:15:22.489Z,97782.47
2022-12-17T22:17:52.824Z,97790.97
2022-12-17T22:20:19.806Z,97791.91
2022-12-17T22:22:46.381Z,97783.50
2022-12-17T22:25:13.328Z,97782.59
2022-12-17T22:27:40.196Z,97788.44
2022-12-17T22:30:25.412Z,97788.44
2022-12-17T22:33:06.894Z,97791.09
2022-12-17T22:38:31.711Z,97794.50
2022-12-17T22:41:18.628Z,97799.59
2022-12-17T22:44:35.977Z,97804.69
2022-12-17T22:44:47.639Z,97807.19
2022-12-17T22:47:15.043Z,97814.75
2022-12-17T22:49:42.546Z,97806.50
2022-12-17T22:52:10.756Z,97804.88
2022-12-17T22:54:37.436Z,97807.56
2022-12-17T22:57:36.364Z,97815.19
2022-12-17T22:59:50.860Z,97809.31
2022-12-17T23:02:17.598Z,97818.56
2022-12-17T23:04:44.977Z,97816.81
2022-12-17T23:07:11.690Z,97824.34
2022-12-17T23:09:38.186Z,97829.38
2022-12-17T23:12:24.648Z,97831.09
2022-12-17T23:14:51.106Z,97845.53
2022-12-17T23:17:17.542Z,97842.19
2022-12-17T23:19:43.974Z,97848.09
2022-12-17T23:22:10.378Z,97856.50
2022-12-17T23:24:36.856Z,97854.78
2022-12-17T23:27:03.352Z,97857.28
2022-12-17T23:29:29.789Z,97853.06
2022-12-17T23:31:56.216Z,97855.66
2022-12-17T23:34:22.699Z,97858.25
2022-12-17T23:36:49.162Z,97863.31
2022-12-17T23:39:15.662Z,97877.69
2022-12-17T23:41:42.199Z,97869.44
2022-12-17T23:44:08.652Z,97869.53
2022-12-17T23:46:35.190Z,97727.84
2022-12-17T23:49:03.472Z,97866.31
2022-12-17T23:51:29.936Z,97871.41
2022-12-17T23:53:56.466Z,97873.13
2022-12-17T23:56:23.733Z,97871.41
2022-12-17T23:59:00.123Z,97880.63
